createdAt,value
2023-03-17T00:01:44.850Z,8.58
2023-03-17T00:04:13.249Z,8.61
2023-03-17T00:06:42.686Z,8.63
2023-03-17T00:09:14.685Z,8.57
2023-03-17T00:11:42.873Z,8.50
2023-03-17T00:14:10.857Z,8.46
2023-03-17T00:16:41.499Z,8.48
2023-03-17T00:19:16.622Z,8.42
2023-03-17T00:21:47.162Z,8.40
2023-03-17T00:24:15.978Z,8.32
2023-03-17T00:26:44.205Z,8.29
2023-03-17T00:29:13.341Z,8.25
2023-03-17T00:31:41.369Z,8.21
2023-03-17T00:34:12.234Z,8.18
2023-03-17T00:36:41.412Z,8.15
2023-03-17T00:41:43.735Z,8.12
2023-03-17T00:44:11.849Z,8.10
2023-03-17T00:46:41.619Z,8.12
2023-03-17T00:51:44.946Z,8.17
2023-03-17T00:54:15.576Z,8.18
2023-03-17T00:56:45.238Z,8.20
2023-03-17T00:59:21.704Z,8.22
2023-03-17T01:01:50.044Z,8.26
2023-03-17T01:04:18.157Z,8.25
2023-03-17T01:06:47.932Z,8.21
2023-03-17T01:09:19.447Z,8.21
2023-03-17T01:11:48.595Z,8.14
2023-03-17T01:14:17.058Z,8.11
2023-03-17T01:16:45.179Z,8.08
2023-03-17T01:19:14.095Z,8.08
2023-03-17T01:21:42.676Z,8.05
2023-03-17T01:24:12.045Z,7.98
2023-03-17T01:26:42.141Z,8.00
2023-03-17T01:29:10.284Z,8.06
2023-03-17T01:31:39.207Z,8.07
2023-03-17T01:34:07.213Z,8.01
2023-03-17T01:36:35.823Z,8.00
2023-03-17T01:39:05.414Z,8.01
2023-03-17T01:41:35.503Z,8.03
2023-03-17T01:44:05.256Z,7.98
2023-03-17T01:46:35.388Z,7.92
2023-03-17T01:49:26.782Z,7.84
2023-03-17T01:52:06.077Z,7.79
2023-03-17T01:54:41.057Z,7.60
2023-03-17T01:57:12.779Z,7.45
2023-03-17T01:59:47.125Z,7.21
2023-03-17T02:02:20.125Z,7.23
2023-03-17T02:04:48.185Z,7.44
2023-03-17T02:07:16.628Z,7.57
2023-03-17T02:09:44.767Z,7.64
2023-03-17T02:12:13.555Z,7.60
2023-03-17T02:14:44.161Z,7.57
2023-03-17T02:17:14.769Z,7.56
2023-03-17T02:19:43.793Z,7.61
2023-03-17T02:22:13.481Z,7.70
2023-03-17T02:24:44.741Z,7.72
2023-03-17T02:27:15.075Z,7.72
2023-03-17T02:29:46.309Z,7.64
2023-03-17T02:32:16.001Z,7.60
2023-03-17T02:34:44.164Z,7.57
2023-03-17T02:37:14.201Z,7.55
2023-03-17T02:39:42.637Z,7.58
2023-03-17T02:42:11.445Z,7.54
2023-03-17T02:44:39.577Z,7.56
2023-03-17T02:47:08.649Z,7.51
2023-03-17T02:49:38.388Z,7.48
2023-03-17T02:52:07.285Z,7.51
2023-03-17T02:54:36.846Z,7.62
2023-03-17T02:57:04.938Z,7.65
2023-03-17T02:59:32.855Z,7.66
2023-03-17T03:02:01.052Z,7.55
2023-03-17T03:04:28.993Z,7.46
2023-03-17T03:06:56.991Z,7.42
2023-03-17T03:09:25.875Z,7.44
2023-03-17T03:11:55.223Z,7.49
2023-03-17T03:14:23.208Z,7.47
2023-03-17T03:16:51.225Z,7.46
2023-03-17T03:19:19.150Z,7.38
2023-03-17T03:21:47.284Z,7.33
2023-03-17T03:24:15.182Z,7.36
2023-03-17T03:26:43.141Z,7.31
2023-03-17T03:29:12.607Z,7.32
2023-03-17T03:31:40.634Z,7.33
2023-03-17T03:34:08.549Z,7.36
2023-03-17T03:36:37.023Z,7.37
2023-03-17T03:39:05.149Z,7.37
2023-03-17T03:41:33.083Z,7.41
2023-03-17T03:44:01.040Z,7.48
2023-03-17T03:46:30.515Z,7.53
2023-03-17T03:48:58.471Z,7.58
2023-03-17T03:51:26.539Z,7.37
2023-03-17T03:53:54.463Z,7.01
2023-03-17T03:56:22.340Z,7.02
2023-03-17T03:58:51.290Z,7.06
2023-03-17T04:01:19.688Z,7.08
2023-03-17T04:03:48.991Z,7.14
2023-03-17T04:06:17.331Z,7.19
2023-03-17T04:08:45.272Z,7.18
2023-03-17T04:11:13.191Z,7.17
2023-03-17T04:13:41.101Z,7.19
2023-03-17T04:16:09.273Z,7.21
2023-03-17T04:18:37.290Z,7.25
2023-03-17T04:21:08.358Z,7.27
2023-03-17T04:23:36.610Z,7.15
2023-03-17T04:26:05.106Z,7.18
2023-03-17T04:28:33.110Z,7.20
2023-03-17T04:31:01.549Z,7.20
2023-03-17T04:33:29.530Z,7.22
2023-03-17T04:35:58.519Z,7.16
2023-03-17T04:38:27.924Z,7.11
2023-03-17T04:40:56.147Z,7.13
2023-03-17T04:43:24.476Z,7.13
2023-03-17T04:45:52.479Z,7.07
2023-03-17T04:48:20.471Z,7.06
2023-03-17T04:50:48.662Z,7.09
2023-03-17T04:53:17.721Z,7.09
2023-03-17T04:55:47.231Z,7.06
2023-03-17T04:58:29.571Z,6.99
2023-03-17T05:00:58.755Z,7.03
2023-03-17T05:03:28.495Z,7.04
2023-03-17T05:05:57.410Z,7.06
2023-03-17T05:08:25.739Z,7.08
2023-03-17T05:10:56.099Z,7.09
2023-03-17T05:13:24.433Z,7.13
2023-03-17T05:15:54.265Z,7.16
2023-03-17T05:18:23.941Z,7.16
2023-03-17T05:20:51.943Z,7.16
2023-03-17T05:23:20.610Z,7.14
2023-03-17T05:25:48.501Z,7.10
2023-03-17T05:28:18.301Z,6.98
2023-03-17T05:30:46.426Z,7.01
2023-03-17T05:33:14.603Z,7.03
2023-03-17T05:35:42.675Z,6.99
2023-03-17T05:38:12.463Z,7.06
2023-03-17T05:40:40.500Z,7.03
2023-03-17T05:43:08.451Z,7.04
2023-03-17T05:45:38.038Z,7.06
2023-03-17T05:48:06.349Z,7.03
2023-03-17T05:50:34.473Z,7.08
2023-03-17T05:53:02.373Z,7.08
2023-03-17T05:55:30.278Z,7.07
2023-03-17T05:57:58.282Z,6.85
2023-03-17T06:00:27.011Z,6.94
2023-03-17T06:02:56.269Z,7.04
2023-03-17T06:05:24.194Z,7.10
2023-03-17T06:07:56.185Z,7.16
2023-03-17T06:10:25.018Z,7.24
2023-03-17T06:12:53.214Z,7.31
2023-03-17T06:15:21.865Z,7.31
2023-03-17T06:17:49.941Z,7.32
2023-03-17T06:20:19.998Z,7.36
2023-03-17T06:23:02.771Z,7.41
2023-03-17T06:25:32.507Z,7.44
2023-03-17T06:28:02.782Z,7.51
2023-03-17T06:30:31.410Z,7.56
2023-03-17T06:33:00.356Z,7.61
2023-03-17T06:35:30.461Z,7.52
2023-03-17T06:37:58.602Z,7.20
2023-03-17T06:40:26.542Z,7.12
2023-03-17T06:42:54.476Z,7.25
2023-03-17T06:45:22.378Z,7.39
2023-03-17T06:47:50.650Z,7.55
2023-03-17T06:50:18.841Z,7.76
2023-03-17T06:52:48.124Z,7.90
2023-03-17T06:55:16.253Z,8.01
2023-03-17T06:57:44.522Z,7.87
2023-03-17T07:00:14.255Z,7.46
2023-03-17T07:02:43.122Z,7.56
2023-03-17T07:05:12.689Z,7.75
2023-03-17T07:07:41.037Z,7.82
2023-03-17T07:10:13.792Z,7.97
2023-03-17T07:12:41.745Z,8.10
2023-03-17T07:15:11.108Z,8.17
2023-03-17T07:17:39.404Z,8.19
2023-03-17T07:20:07.987Z,8.18
2023-03-17T07:22:35.913Z,8.10
2023-03-17T07:25:03.918Z,8.20
2023-03-17T07:27:33.195Z,8.29
2023-03-17T07:30:02.346Z,8.27
2023-03-17T07:32:30.595Z,8.31
2023-03-17T07:34:59.544Z,8.39
2023-03-17T07:37:27.555Z,8.47
2023-03-17T07:39:56.120Z,8.57
2023-03-17T07:42:24.124Z,8.52
2023-03-17T07:44:53.510Z,8.38
2023-03-17T07:47:21.375Z,8.46
2023-03-17T07:49:49.341Z,8.61
2023-03-17T07:52:17.383Z,8.69
2023-03-17T07:54:45.370Z,8.72
2023-03-17T07:57:13.755Z,8.79
2023-03-17T07:59:41.879Z,8.78
2023-03-17T08:02:16.941Z,8.83
2023-03-17T08:04:45.681Z,8.89
2023-03-17T08:07:14.739Z,8.96
2023-03-17T08:09:42.891Z,8.94
2023-03-17T08:12:11.745Z,8.80
2023-03-17T08:14:39.659Z,8.75
2023-03-17T08:17:07.818Z,8.78
2023-03-17T08:19:37.338Z,8.85
2023-03-17T08:22:05.586Z,8.97
2023-03-17T08:24:33.714Z,8.98
2023-03-17T08:27:02.099Z,9.03
2023-03-17T08:29:30.458Z,9.08
2023-03-17T08:31:58.762Z,9.21
2023-03-17T08:34:27.306Z,9.32
2023-03-17T08:36:56.655Z,9.46
2023-03-17T08:39:25.375Z,9.68
2023-03-17T08:41:53.515Z,9.85
2023-03-17T08:44:21.884Z,9.92
2023-03-17T08:46:50.239Z,10.03
2023-03-17T08:49:18.442Z,10.09
2023-03-17T08:51:46.405Z,10.06
2023-03-17T08:54:16.309Z,10.09
2023-03-17T08:56:44.221Z,10.15
2023-03-17T08:59:12.495Z,10.17
2023-03-17T09:01:42.120Z,10.00
2023-03-17T09:04:11.094Z,10.02
2023-03-17T09:06:44.084Z,10.16
2023-03-17T09:09:18.517Z,10.17
2023-03-17T09:11:46.580Z,10.24
2023-03-17T09:14:14.446Z,10.14
2023-03-17T09:16:42.379Z,10.26
2023-03-17T09:19:10.273Z,10.36
2023-03-17T09:21:38.308Z,10.39
2023-03-17T09:24:07.267Z,10.50
2023-03-17T09:26:37.026Z,10.58
2023-03-17T09:29:05.315Z,10.64
2023-03-17T09:31:33.599Z,10.70
2023-03-17T09:34:01.538Z,10.83
2023-03-17T09:36:29.602Z,10.93
2023-03-17T09:38:57.557Z,11.05
2023-03-17T09:41:50.004Z,10.90
2023-03-17T09:44:37.994Z,10.85
2023-03-17T09:47:15.022Z,10.91
2023-03-17T09:49:48.668Z,11.07
2023-03-17T09:52:18.689Z,11.09
2023-03-17T09:54:49.684Z,11.24
2023-03-17T09:57:26.187Z,11.27
2023-03-17T10:00:01.620Z,11.29
2023-03-17T10:02:34.462Z,11.38
2023-03-17T10:05:14.995Z,11.55
2023-03-17T10:07:50.156Z,11.57
2023-03-17T10:10:24.373Z,11.51
2023-03-17T10:13:01.205Z,11.55
2023-03-17T10:15:36.108Z,11.73
2023-03-17T10:18:10.661Z,11.92
2023-03-17T10:20:50.421Z,12.02
2023-03-17T10:23:25.532Z,12.03
2023-03-17T10:25:54.794Z,12.07
2023-03-17T10:28:30.778Z,12.09
2023-03-17T10:31:07.736Z,12.15
2023-03-17T10:33:35.934Z,12.27
2023-03-17T10:36:09.688Z,12.46
2023-03-17T10:38:38.130Z,12.49
2023-03-17T10:41:09.890Z,12.58
2023-03-17T10:43:45.770Z,12.72
2023-03-17T10:46:21.625Z,12.88
2023-03-17T10:48:54.320Z,12.73
2023-03-17T10:51:31.927Z,12.48
2023-03-17T10:54:03.961Z,12.54
2023-03-17T10:56:36.187Z,12.75
2023-03-17T10:59:09.722Z,12.80
2023-03-17T11:01:40.325Z,12.74
2023-03-17T11:04:28.492Z,12.72
2023-03-17T11:06:58.438Z,12.86
2023-03-17T11:09:29.219Z,12.79
2023-03-17T11:12:06.689Z,12.64
2023-03-17T11:14:36.460Z,12.67
2023-03-17T11:17:14.662Z,12.82
2023-03-17T11:19:51.051Z,12.96
2023-03-17T11:22:26.869Z,13.02
2023-03-17T11:25:04.466Z,12.99
2023-03-17T11:27:36.050Z,13.03
2023-03-17T11:30:20.643Z,13.01
2023-03-17T11:32:56.642Z,13.07
2023-03-17T11:35:38.984Z,13.03
2023-03-17T11:38:19.565Z,13.12
2023-03-17T11:41:03.398Z,13.24
2023-03-17T11:43:38.570Z,13.33
2023-03-17T11:46:12.127Z,13.60
2023-03-17T11:48:52.983Z,13.69
2023-03-17T11:51:30.400Z,13.47
2023-03-17T11:54:09.661Z,13.61
2023-03-17T11:56:44.096Z,13.49
2023-03-17T11:59:26.209Z,13.69
2023-03-17T12:02:04.723Z,13.80
2023-03-17T12:04:37.952Z,13.76
2023-03-17T12:07:14.289Z,13.70
2023-03-17T12:09:45.684Z,13.72
2023-03-17T12:12:16.495Z,13.73
2023-03-17T12:14:48.802Z,13.67
2023-03-17T12:17:25.126Z,13.84
2023-03-17T12:20:06.776Z,14.03
2023-03-17T12:22:40.836Z,14.14
2023-03-17T12:25:16.471Z,14.17
2023-03-17T12:27:51.641Z,14.40
2023-03-17T12:30:29.233Z,14.56
2023-03-17T12:33:07.767Z,14.50
2023-03-17T12:35:38.723Z,14.61
2023-03-17T12:38:10.514Z,14.72
2023-03-17T12:40:54.657Z,14.41
2023-03-17T12:43:38.091Z,14.17
2023-03-17T12:46:19.731Z,14.15
2023-03-17T12:49:27.600Z,14.26
2023-03-17T12:52:07.839Z,14.32
2023-03-17T12:54:38.635Z,14.31
2023-03-17T12:57:13.489Z,14.32
2023-03-17T12:59:45.014Z,14.59
2023-03-17T13:02:19.608Z,14.81
2023-03-17T13:04:58.143Z,14.86
2023-03-17T13:07:28.462Z,14.70
2023-03-17T13:10:29.288Z,14.57
2023-03-17T13:13:05.724Z,14.52
2023-03-17T13:15:54.146Z,14.48
2023-03-17T13:18:50.548Z,14.47
2023-03-17T13:21:29.164Z,14.52
2023-03-17T13:24:37.155Z,14.45
2023-03-17T13:27:05.687Z,14.44
2023-03-17T13:29:47.792Z,14.37
2023-03-17T13:32:39.847Z,14.35
2023-03-17T13:35:22.665Z,14.37
2023-03-17T13:38:11.466Z,14.37
2023-03-17T13:40:48.837Z,14.45
2023-03-17T13:43:41.875Z,14.82
2023-03-17T13:46:24.457Z,15.15
2023-03-17T13:48:54.793Z,15.30
2023-03-17T13:51:24.930Z,15.20
2023-03-17T13:53:58.154Z,14.98
2023-03-17T13:56:30.419Z,15.21
2023-03-17T13:59:13.842Z,15.54
2023-03-17T14:01:47.190Z,15.71
2023-03-17T14:04:21.462Z,15.65
2023-03-17T14:06:52.787Z,15.56
2023-03-17T14:09:38.906Z,15.66
2023-03-17T14:12:14.425Z,15.52
2023-03-17T14:14:50.359Z,15.46
2023-03-17T14:17:24.576Z,15.47
2023-03-17T14:20:06.343Z,15.59
2023-03-17T14:22:39.922Z,15.61
2023-03-17T14:25:17.497Z,15.82
2023-03-17T14:27:47.096Z,16.10
2023-03-17T14:30:20.711Z,16.30
2023-03-17T14:32:51.493Z,16.41
2023-03-17T14:35:19.405Z,16.50
2023-03-17T14:37:47.302Z,16.40
2023-03-17T14:40:25.303Z,16.37
2023-03-17T14:42:53.405Z,16.38
2023-03-17T14:45:30.140Z,16.65
2023-03-17T14:47:58.194Z,16.72
2023-03-17T14:50:29.191Z,16.61
2023-03-17T14:52:59.829Z,16.78
2023-03-17T14:55:36.927Z,16.90
2023-03-17T14:58:10.157Z,16.88
2023-03-17T15:00:44.890Z,16.71
2023-03-17T15:03:20.335Z,16.63
2023-03-17T15:05:49.750Z,16.79
2023-03-17T15:08:40.990Z,16.80
2023-03-17T15:11:18.566Z,16.96
2023-03-17T15:13:46.852Z,17.04
2023-03-17T15:16:19.473Z,16.94
2023-03-17T15:18:47.794Z,16.64
2023-03-17T15:21:24.720Z,16.65
2023-03-17T15:23:52.666Z,16.77
2023-03-17T15:26:32.160Z,16.74
2023-03-17T15:29:01.488Z,16.71
2023-03-17T15:31:30.648Z,16.64
2023-03-17T15:33:59.522Z,16.38
2023-03-17T15:36:32.590Z,16.02
2023-03-17T15:39:01.876Z,15.93
2023-03-17T15:41:31.385Z,15.97
2023-03-17T15:43:59.255Z,15.89
2023-03-17T15:46:31.002Z,16.03
2023-03-17T15:48:59.432Z,16.09
2023-03-17T15:51:27.841Z,16.07
2023-03-17T15:53:55.750Z,15.94
2023-03-17T15:56:23.677Z,15.82
2023-03-17T15:58:52.931Z,16.03
2023-03-17T16:01:21.457Z,15.96
2023-03-17T16:03:50.044Z,15.74
2023-03-17T16:06:21.238Z,15.59
2023-03-17T16:08:50.291Z,15.43
2023-03-17T16:11:20.199Z,15.36
2023-03-17T16:13:48.446Z,15.31
2023-03-17T16:16:27.845Z,15.41
2023-03-17T16:18:56.031Z,15.30
2023-03-17T16:21:23.945Z,15.46
2023-03-17T16:23:51.916Z,15.72
2023-03-17T16:26:19.809Z,15.54
2023-03-17T16:28:49.461Z,15.29
2023-03-17T16:31:24.805Z,15.17
2023-03-17T16:33:53.630Z,14.95
2023-03-17T16:36:22.751Z,14.77
2023-03-17T16:38:51.286Z,14.56
2023-03-17T16:41:21.539Z,14.44
2023-03-17T16:43:52.298Z,14.41
2023-03-17T16:46:23.472Z,14.24
2023-03-17T16:48:52.228Z,14.30
2023-03-17T16:51:20.675Z,14.19
2023-03-17T16:53:48.762Z,14.17
2023-03-17T16:56:20.053Z,13.94
2023-03-17T16:58:48.714Z,13.88
2023-03-17T17:01:21.000Z,13.85
2023-03-17T17:03:50.935Z,13.91
2023-03-17T17:06:20.746Z,13.75
2023-03-17T17:08:49.897Z,13.78
2023-03-17T17:11:19.127Z,13.79
2023-03-17T17:13:49.361Z,13.78
2023-03-17T17:16:22.453Z,13.72
2023-03-17T17:18:51.762Z,13.65
2023-03-17T17:21:19.732Z,13.51
2023-03-17T17:23:47.658Z,13.38
2023-03-17T17:26:15.811Z,13.29
2023-03-17T17:28:43.725Z,13.30
2023-03-17T17:31:12.263Z,13.20
2023-03-17T17:33:40.468Z,13.21
2023-03-17T17:36:15.131Z,13.14
2023-03-17T17:38:43.481Z,13.14
2023-03-17T17:41:12.662Z,13.07
2023-03-17T17:43:41.531Z,13.03
2023-03-17T17:46:17.992Z,13.08
2023-03-17T17:48:46.192Z,13.01
2023-03-17T17:51:15.658Z,13.08
2023-03-17T17:53:43.603Z,13.08
2023-03-17T17:56:14.754Z,13.02
2023-03-17T17:58:43.392Z,13.04
2023-03-17T18:01:13.675Z,13.02
2023-03-17T18:03:42.988Z,13.07
2023-03-17T18:06:11.708Z,13.09
2023-03-17T18:08:43.525Z,13.12
2023-03-17T18:11:11.905Z,13.18
2023-03-17T18:13:41.068Z,13.21
2023-03-17T18:16:10.779Z,13.20
2023-03-17T18:18:42.354Z,13.12
2023-03-17T18:21:10.890Z,13.04
2023-03-17T18:23:46.785Z,12.99
2023-03-17T18:26:16.122Z,12.97
2023-03-17T18:28:44.793Z,12.89
2023-03-17T18:31:16.527Z,12.87
2023-03-17T18:33:46.718Z,12.77
2023-03-17T18:36:14.918Z,12.70
2023-03-17T18:38:44.490Z,12.71
2023-03-17T18:41:12.696Z,12.71
2023-03-17T18:43:41.267Z,12.64
2023-03-17T18:46:09.212Z,12.60
2023-03-17T18:48:37.326Z,12.67
2023-03-17T18:51:05.281Z,12.57
2023-03-17T18:53:34.571Z,12.48
2023-03-17T18:56:03.968Z,12.49
2023-03-17T18:58:31.916Z,12.57
2023-03-17T19:01:00.572Z,12.61
2023-03-17T19:03:29.279Z,12.57
2023-03-17T19:05:58.007Z,12.57
2023-03-17T19:08:26.095Z,12.54
2023-03-17T19:10:54.085Z,12.42
2023-03-17T19:13:23.363Z,12.34
2023-03-17T19:15:52.422Z,12.34
2023-03-17T19:18:20.423Z,12.25
2023-03-17T19:20:48.332Z,12.17
2023-03-17T19:23:16.518Z,12.19
2023-03-17T19:25:44.532Z,12.18
2023-03-17T19:28:12.524Z,12.19
2023-03-17T19:30:42.038Z,12.06
2023-03-17T19:33:10.013Z,12.11
2023-03-17T19:35:38.006Z,12.17
2023-03-17T19:38:08.228Z,12.18
2023-03-17T19:40:36.999Z,12.16
2023-03-17T19:43:05.228Z,12.11
2023-03-17T19:45:33.863Z,12.13
2023-03-17T19:48:03.155Z,12.07
2023-03-17T19:50:32.864Z,12.00
2023-03-17T19:53:01.093Z,12.02
2023-03-17T19:55:29.610Z,12.04
2023-03-17T19:57:57.611Z,12.14
2023-03-17T20:00:26.050Z,12.20
2023-03-17T20:02:53.999Z,12.19
2023-03-17T20:05:23.305Z,12.24
2023-03-17T20:07:51.387Z,12.18
2023-03-17T20:10:19.448Z,12.20
2023-03-17T20:12:47.327Z,12.06
2023-03-17T20:15:16.575Z,11.96
2023-03-17T20:17:44.493Z,11.85
2023-03-17T20:20:14.441Z,11.94
2023-03-17T20:22:44.050Z,11.88
2023-03-17T20:25:12.419Z,11.89
2023-03-17T20:27:40.717Z,11.98
2023-03-17T20:30:12.315Z,11.92
2023-03-17T20:32:40.515Z,11.96
2023-03-17T20:35:09.212Z,11.95
2023-03-17T20:37:37.356Z,11.93
2023-03-17T20:40:09.857Z,11.86
2023-03-17T20:42:38.277Z,11.76
2023-03-17T20:45:07.488Z,11.72
2023-03-17T20:47:36.169Z,11.63
2023-03-17T20:50:04.673Z,11.61
2023-03-17T20:52:32.603Z,11.56
2023-03-17T20:55:00.500Z,11.69
2023-03-17T20:57:30.292Z,11.51
2023-03-17T20:59:58.354Z,11.26
2023-03-17T21:02:26.330Z,11.20
2023-03-17T21:04:54.240Z,11.15
2023-03-17T21:07:23.238Z,11.06
2023-03-17T21:09:51.935Z,10.93
2023-03-17T21:12:21.299Z,11.09
2023-03-17T21:14:52.229Z,11.18
2023-03-17T21:17:20.706Z,11.32
2023-03-17T21:19:48.620Z,11.28
2023-03-17T21:22:17.684Z,11.35
2023-03-17T21:24:45.600Z,11.31
2023-03-17T21:27:14.089Z,11.32
2023-03-17T21:29:42.016Z,11.30
2023-03-17T21:32:11.462Z,11.26
2023-03-17T21:34:39.520Z,11.24
2023-03-17T21:37:07.825Z,11.30
2023-03-17T21:39:36.234Z,11.33
2023-03-17T21:42:05.278Z,11.30
2023-03-17T21:44:33.463Z,11.29
2023-03-17T21:47:02.586Z,11.29
2023-03-17T21:49:31.880Z,11.15
2023-03-17T21:51:59.834Z,11.09
2023-03-17T21:54:28.407Z,10.94
2023-03-17T21:56:56.578Z,11.02
2023-03-17T21:59:24.914Z,11.09
2023-03-17T22:01:53.385Z,11.00
2023-03-17T22:04:21.320Z,11.00
2023-03-17T22:06:52.229Z,10.94
2023-03-17T22:09:20.676Z,10.88
2023-03-17T22:11:49.713Z,10.89
2023-03-17T22:14:20.640Z,10.92
2023-03-17T22:16:49.189Z,10.83
2023-03-17T22:19:20.644Z,10.81
2023-03-17T22:21:50.512Z,10.91
2023-03-17T22:24:18.507Z,10.82
2023-03-17T22:26:46.614Z,10.86
2023-03-17T22:29:15.188Z,10.68
2023-03-17T22:31:43.114Z,10.64
2023-03-17T22:34:11.057Z,10.78
2023-03-17T22:36:38.952Z,10.81
2023-03-17T22:39:10.576Z,10.89
2023-03-17T22:41:39.175Z,10.83
2023-03-17T22:44:09.109Z,10.84
2023-03-17T22:46:37.456Z,10.88
2023-03-17T22:49:05.990Z,10.82
2023-03-17T22:51:33.915Z,10.75
2023-03-17T22:54:02.082Z,10.76
2023-03-17T22:56:31.389Z,10.69
2023-03-17T22:58:59.385Z,10.69
2023-03-17T23:01:27.456Z,10.71
2023-03-17T23:03:56.316Z,10.64
2023-03-17T23:06:24.609Z,10.69
2023-03-17T23:08:52.955Z,10.65
2023-03-17T23:11:24.720Z,10.65
2023-03-17T23:13:54.858Z,10.65
2023-03-17T23:16:23.178Z,10.63
2023-03-17T23:18:51.534Z,10.53
2023-03-17T23:21:24.663Z,10.55
2023-03-17T23:23:52.564Z,10.45
2023-03-17T23:26:20.609Z,10.43
2023-03-17T23:28:48.614Z,10.47
2023-03-17T23:31:19.354Z,10.33
2023-03-17T23:33:47.945Z,10.41
2023-03-17T23:36:16.272Z,10.44
2023-03-17T23:38:45.538Z,10.38
2023-03-17T23:41:14.540Z,10.35
2023-03-17T23:43:44.031Z,10.39
2023-03-17T23:46:13.086Z,10.39
2023-03-17T23:48:43.029Z,10.44
2023-03-17T23:51:12.396Z,10.38
2023-03-17T23:53:41.742Z,10.25
2023-03-17T23:56:11.544Z,10.15
2023-03-17T23:58:39.936Z,10.14
